Time;durP1;ratioP1;P1;durP2;ratioP2;P2;SDS_P1;SDS_P2;PMS_P1;PMS_P2;Temp;Humidity;BMP_temperature;BMP_pressure;BME280_temperature;BME280_humidity;BME280_pressure;Samples;Min_cycle;Max_cycle;Signal;HPM_P1;HPM_P2
2022/04/07 07:04:53;;;;;;;5.55;1.02;;;8.50;99.70;;;;;;5061340;28;20381;-85
2022/04/07 07:07:19;;;;;;;7.68;1.58;;;8.50;98.00;;;;;;5048832;28;20064;-84
2022/04/07 07:09:46;;;;;;;3.53;1.27;;;8.60;98.20;;;;;;5046491;28;20056;-81
2022/04/07 07:12:12;;;;;;;7.88;1.52;;;8.60;97.60;;;;;;5048707;28;20531;-87
2022/04/07 07:14:37;;;;;;;11.10;1.65;;;8.60;97.40;;;;;;5047122;28;20017;-85
2022/04/07 07:17:03;;;;;;;8.30;1.75;;;8.60;97.30;;;;;;5047293;28;20401;-86
2022/04/07 07:19:29;;;;;;;4.22;1.02;;;8.70;97.10;;;;;;5048072;28;20025;-85
2022/04/07 07:21:56;;;;;;;11.95;1.55;;;8.70;95.80;;;;;;5053626;28;20485;-82
2022/04/07 07:24:21;;;;;;;11.35;1.45;;;8.80;97.60;;;;;;5047750;28;20409;-85
2022/04/07 07:26:47;;;;;;;10.63;1.63;;;8.90;96.60;;;;;;5045912;28;20026;-85
2022/04/07 07:29:13;;;;;;;7.80;1.63;;;9.00;96.20;;;;;;5046472;28;20017;-85
2022/04/07 07:31:38;;;;;;;14.07;1.50;;;9.00;96.60;;;;;;5046935;28;20029;-86
2022/04/07 07:34:04;;;;;;;11.68;1.80;;;9.10;95.90;;;;;;5048304;28;20522;-86
2022/04/07 07:36:30;;;;;;;4.75;1.00;;;9.10;94.00;;;;;;5041231;28;20021;-86
2022/04/07 07:38:56;;;;;;;11.40;1.83;;;9.00;93.30;;;;;;5046835;28;20025;-84
2022/04/07 07:41:23;;;;;;;8.35;1.63;;;9.00;92.90;;;;;;5047855;28;20071;-86
2022/04/07 07:43:49;;;;;;;8.18;1.25;;;9.00;93.20;;;;;;5052925;28;20033;-85
2022/04/07 07:46:14;;;;;;;11.82;1.33;;;9.00;92.20;;;;;;5046825;28;20021;-85
2022/04/07 07:48:40;;;;;;;10.45;1.20;;;9.00;92.60;;;;;;5046727;28;20044;-86
2022/04/07 07:51:06;;;;;;;9.85;1.92;;;9.00;91.80;;;;;;5047110;28;20474;-87
2022/04/07 07:53:31;;;;;;;9.50;1.60;;;9.00;91.90;;;;;;5046449;28;20033;-85
2022/04/07 07:55:57;;;;;;;11.07;1.40;;;8.90;92.70;;;;;;5047786;28;20052;-86
2022/04/07 07:58:24;;;;;;;7.97;1.23;;;8.90;92.90;;;;;;5046547;28;20025;-84
2022/04/07 08:00:50;;;;;;;8.93;1.42;;;9.00;92.00;;;;;;5046697;28;20079;-86
2022/04/07 08:03:15;;;;;;;8.15;1.48;;;9.00;91.50;;;;;;5047643;28;20060;-85
2022/04/07 08:05:41;;;;;;;9.52;1.40;;;9.00;91.00;;;;;;5046398;28;20400;-85
2022/04/07 08:08:07;;;;;;;9.75;1.75;;;9.00;92.50;;;;;;5046490;28;20017;-86
2022/04/07 08:10:33;;;;;;;11.32;1.20;;;9.20;91.90;;;;;;5046472;28;20029;-85
2022/04/07 08:12:59;;;;;;;11.80;1.88;;;9.20;90.00;;;;;;5046289;28;20511;-84
2022/04/07 08:15:27;;;;;;;11.00;1.55;;;9.30;89.90;;;;;;5038419;28;20029;-85
2022/04/07 08:17:53;;;;;;;13.05;1.98;;;9.40;90.90;;;;;;5033343;28;20033;-82
2022/04/07 08:20:19;;;;;;;9.77;1.38;;;9.60;90.40;;;;;;5033192;28;20573;-85
2022/04/07 08:22:45;;;;;;;12.00;1.45;;;9.60;88.20;;;;;;5034189;28;20056;-84
2022/04/07 09:24:44;;;;;;;10.30;1.80;;;13.00;65.70;;;;;;5914424;22;20069;-85
2022/04/07 09:27:12;;;;;;;12.52;1.67;;;13.20;63.60;;;;;;5011527;28;20033;-85
2022/04/07 09:29:46;;;;;;;8.07;1.10;;;13.80;64.20;;;;;;5012424;28;20024;-86
2022/04/07 09:32:30;;;;;;;5.68;1.30;;;14.30;62.00;;;;;;5013984;28;20026;-86
2022/04/07 09:34:57;;;;;;;7.63;1.33;;;14.50;59.30;;;;;;5008073;28;20096;-88
2022/04/07 09:37:25;;;;;;;9.30;1.58;;;14.30;59.40;;;;;;5031046;28;20021;-87
2022/04/07 09:40:16;;;;;;;5.05;1.30;;;14.40;58.70;;;;;;5013986;28;20112;-84
2022/04/07 09:42:42;;;;;;;5.97;1.27;;;14.80;58.40;;;;;;4995905;28;20022;-89
2022/04/07 09:45:12;;;;;;;6.47;1.30;;;15.40;56.40;;;;;;5012979;28;20026;-85
2022/04/07 09:47:46;;;;;;;7.38;1.30;;;15.70;53.90;;;;;;5013277;28;20049;-83
2022/04/07 09:50:31;;;;;;;9.38;1.98;;;15.30;53.40;;;;;;5005030;28;20026;-85
2022/04/07 09:53:05;;;;;;;8.68;1.33;;;15.30;54.60;;;;;;5005246;28;20037;-83
2022/04/07 09:55:37;;;;;;;7.22;0.90;;;15.60;52.90;;;;;;5020558;28;20018;-87
2022/04/07 09:58:08;;;;;;;7.72;1.38;;;16.00;51.60;;;;;;5015025;28;20030;-84
2022/04/07 10:00:35;;;;;;;9.90;1.33;;;15.40;51.60;;;;;;5012997;28;20018;-89
2022/04/07 10:03:02;;;;;;;10.15;1.05;;;16.00;51.60;;;;;;5027331;28;20024;-88
2022/04/07 10:05:29;;;;;;;3.05;0.80;;;16.20;50.50;;;;;;5030114;28;20053;-87
2022/04/07 10:07:57;;;;;;;5.38;1.55;;;16.80;47.40;;;;;;5016205;28;20026;-86
2022/04/07 10:10:24;;;;;;;4.47;1.13;;;16.80;48.20;;;;;;5012358;28;20021;-85
2022/04/07 10:12:51;;;;;;;6.93;1.52;;;17.10;48.50;;;;;;5030081;28;20030;-85
2022/04/07 10:15:17;;;;;;;3.60;0.70;;;16.90;45.90;;;;;;5015015;28;20505;-84
2022/04/07 10:17:44;;;;;;;7.93;0.90;;;16.70;48.80;;;;;;5012663;28;20382;-84
2022/04/07 10:20:12;;;;;;;6.28;1.20;;;16.20;47.30;;;;;;5017813;28;20072;-87
2022/04/07 10:22:53;;;;;;;5.97;0.98;;;16.80;48.90;;;;;;5026933;28;20429;-84
2022/04/07 11:24:54;;;;;;;6.45;0.80;;;16.40;42.50;;;;;;5860553;23;20046;-80
2022/04/07 11:27:35;;;;;;;3.05;0.93;;;17.60;39.80;;;;;;5031330;28;20013;-80
2022/04/07 11:30:05;;;;;;;5.80;1.00;;;19.00;40.60;;;;;;5031265;28;20021;-80
2022/04/07 11:32:30;;;;;;;5.22;1.30;;;17.90;38.80;;;;;;5031355;28;20501;-79
2022/04/07 11:34:58;;;;;;;5.93;0.80;;;17.90;38.10;;;;;;5031197;28;20038;-79
2022/04/07 11:37:24;;;;;;;6.82;1.02;;;17.50;39.20;;;;;;5031192;28;20013;-80
2022/04/07 11:39:52;;;;;;;7.90;1.00;;;16.90;40.20;;;;;;5031115;28;20036;-79
2022/04/07 11:42:19;;;;;;;2.72;0.80;;;17.70;40.20;;;;;;5030985;28;20382;-79
2022/04/07 11:44:46;;;;;;;3.42;0.80;;;18.00;39.40;;;;;;5022986;28;20033;-79
2022/04/07 11:47:48;;;;;;;6.25;0.88;;;18.10;36.60;;;;;;5031230;28;20338;-78
2022/04/07 11:50:14;;;;;;;;;;;17.30;38.90;;;;;;5026099;28;20489;-79
2022/04/07 11:52:39;;;;;;;4.18;0.60;;;17.00;36.80;;;;;;5034650;28;19905;-79
2022/04/07 11:55:06;;;;;;;2.45;0.55;;;15.60;36.30;;;;;;5034488;28;20032;-78
2022/04/07 11:57:32;;;;;;;2.72;0.98;;;15.50;38.60;;;;;;5034888;28;20027;-78
2022/04/07 12:00:04;;;;;;;3.15;1.00;;;16.40;38.30;;;;;;5034824;28;20063;-78
2022/04/07 12:02:30;;;;;;;5.88;0.80;;;17.70;35.80;;;;;;5034596;28;20017;-79
2022/04/07 12:05:01;;;;;;;3.10;0.77;;;18.00;33.80;;;;;;5034264;28;20017;-77
2022/04/07 12:07:28;;;;;;;4.50;0.80;;;18.40;35.30;;;;;;5027638;28;20021;-79
2022/04/07 12:09:58;;;;;;;7.40;1.00;;;19.20;33.90;;;;;;5034651;28;20047;-78
2022/04/07 12:12:24;;;;;;;5.22;0.60;;;19.50;33.60;;;;;;5034788;28;20075;-78
2022/04/07 12:14:52;;;;;;;3.63;0.57;;;18.60;33.70;;;;;;5034600;28;20116;-79
2022/04/07 12:17:17;;;;;;;3.78;0.80;;;19.40;34.90;;;;;;5032966;28;20021;-78
2022/04/07 12:19:46;;;;;;;3.63;0.70;;;20.60;34.00;;;;;;5034629;28;20028;-79
2022/04/07 12:22:14;;;;;;;5.93;0.70;;;19.80;31.60;;;;;;5034381;28;20029;-78
2022/04/07 12:25:00;;;;;;;4.68;0.35;;;19.40;33.40;;;;;;5053204;23;20036;-87
2022/04/07 12:27:31;;;;;;;4.05;0.80;;;19.40;32.90;;;;;;5040899;28;20092;-82
2022/04/07 12:29:58;;;;;;;4.93;0.82;;;19.50;34.50;;;;;;5034123;28;20460;-85
2022/04/07 12:32:25;;;;;;;7.07;1.50;;;19.00;32.30;;;;;;5034241;28;20100;-84
2022/04/07 12:34:52;;;;;;;5.32;0.52;;;19.30;32.60;;;;;;5028201;28;20505;-84
2022/04/07 12:37:39;;;;;;;7.20;1.30;;;19.10;30.90;;;;;;5014472;28;20022;-82
2022/04/07 12:40:27;;;;;;;5.25;0.82;;;18.90;32.20;;;;;;5014111;28;20028;-83
2022/04/07 12:42:58;;;;;;;2.28;0.50;;;20.00;30.60;;;;;;5021290;28;20079;-85
2022/04/07 12:45:24;;;;;;;3.65;0.80;;;20.20;29.80;;;;;;5014098;28;20075;-88
2022/04/07 12:48:10;;;;;;;4.03;0.75;;;20.30;30.30;;;;;;5013779;28;20022;-84
2022/04/07 12:50:37;;;;;;;2.50;0.73;;;20.70;29.80;;;;;;5012371;28;20022;-82
2022/04/07 12:53:03;;;;;;;2.35;0.40;;;20.90;30.70;;;;;;5013385;28;20390;-86
2022/04/07 12:55:37;;;;;;;3.30;0.70;;;21.10;29.40;;;;;;5013412;28;20022;-85
2022/04/07 12:58:04;;;;;;;3.72;0.65;;;20.70;28.20;;;;;;5012848;28;20030;-85
2022/04/07 13:00:34;;;;;;;3.17;0.70;;;19.30;30.10;;;;;;5012734;28;20022;-85
2022/04/07 13:03:02;;;;;;;4.95;0.60;;;20.10;29.10;;;;;;5013930;28;20403;-86
2022/04/07 13:05:33;;;;;;;3.70;0.70;;;20.00;29.20;;;;;;5013717;28;20017;-85
2022/04/07 13:08:04;;;;;;;5.75;0.73;;;19.80;27.90;;;;;;5013732;28;20026;-86
2022/04/07 13:10:31;;;;;;;3.20;0.70;;;19.90;29.70;;;;;;5013396;28;20057;-86
2022/04/07 13:12:57;;;;;;;1.98;0.63;;;20.00;28.20;;;;;;5013616;28;20033;-88
2022/04/07 13:15:24;;;;;;;4.10;0.80;;;19.60;28.50;;;;;;5013384;28;20028;-87
2022/04/07 13:17:49;;;;;;;2.75;0.70;;;20.80;28.50;;;;;;5013730;28;20037;-87
2022/04/07 13:20:16;;;;;;;6.30;1.50;;;20.90;27.90;;;;;;5013384;28;20025;-87
2022/04/07 13:22:42;;;;;;;3.15;0.73;;;21.10;28.00;;;;;;5013531;28;20439;-83
2022/04/07 14:24:41;;;;;;;4.47;0.73;;;20.50;25.70;;;;;;6074508;22;20019;-79
2022/04/07 14:27:07;;;;;;;3.95;0.43;;;19.50;26.00;;;;;;5025087;28;20042;-80
2022/04/07 14:29:33;;;;;;;3.60;0.40;;;18.80;26.40;;;;;;5011999;28;20060;-80
2022/04/07 14:31:58;;;;;;;3.42;0.50;;;18.30;27.50;;;;;;5012126;28;20123;-80
2022/04/07 14:34:24;;;;;;;3.45;0.75;;;17.20;27.10;;;;;;5012029;28;20508;-78
2022/04/07 14:36:50;;;;;;;3.17;0.52;;;16.20;29.30;;;;;;4992315;28;20023;-80
2022/04/07 14:39:16;;;;;;;1.15;0.30;;;16.00;28.90;;;;;;4998979;28;20029;-80
2022/04/07 14:41:42;;;;;;;3.13;0.82;;;15.70;28.50;;;;;;4992195;28;20026;-80
2022/04/07 14:44:07;;;;;;;2.65;0.30;;;17.30;29.10;;;;;;4991383;28;20483;-79
2022/04/07 14:46:33;;;;;;;4.97;2.15;;;18.60;28.10;;;;;;4991510;28;20380;-79
2022/04/07 14:48:59;;;;;;;1.33;0.28;;;19.60;27.10;;;;;;4992201;28;20048;-79
2022/04/07 14:51:25;;;;;;;3.85;0.68;;;19.50;27.50;;;;;;4992260;28;20104;-81
2022/04/07 14:53:51;;;;;;;4.50;0.50;;;20.80;27.00;;;;;;4984834;28;20045;-81
2022/04/07 14:56:16;;;;;;;1.95;0.40;;;21.20;24.30;;;;;;4991693;28;20105;-80
2022/04/07 14:58:42;;;;;;;2.00;0.22;;;20.30;23.80;;;;;;4991499;28;20109;-80
2022/04/07 15:01:08;;;;;;;1.60;0.30;;;20.40;24.60;;;;;;4991756;28;20022;-79
2022/04/07 15:03:34;;;;;;;2.92;0.40;;;20.00;25.60;;;;;;4991889;28;20034;-80
2022/04/07 15:05:59;;;;;;;2.75;0.35;;;20.40;24.70;;;;;;4991822;28;20472;-80
2022/04/07 15:08:25;;;;;;;2.45;0.30;;;20.30;25.80;;;;;;4990514;28;20131;-79
2022/04/07 15:10:52;;;;;;;1.17;0.40;;;19.30;26.20;;;;;;4983128;28;20064;-85
2022/04/07 15:13:18;;;;;;;3.88;0.50;;;18.10;27.60;;;;;;4973026;28;20019;-82
2022/04/07 15:15:43;;;;;;;6.20;0.60;;;16.70;29.50;;;;;;4973703;28;20707;-81
2022/04/07 15:18:09;;;;;;;1.52;0.50;;;16.70;35.30;;;;;;4973034;28;20030;-83
2022/04/07 15:20:35;;;;;;;2.83;0.82;;;16.00;40.40;;;;;;4980389;28;20475;-81
2022/04/07 15:23:01;;;;;;;4.57;0.60;;;15.10;43.60;;;;;;4972588;28;20494;-81
2022/04/07 15:25:27;;;;;;;5.47;0.60;;;14.30;47.10;;;;;;4975576;28;20037;-85
2022/04/07 15:27:53;;;;;;;5.03;0.55;;;13.50;48.20;;;;;;4979749;28;20030;-79
2022/04/07 15:30:19;;;;;;;3.53;0.70;;;13.20;51.10;;;;;;4981174;28;20033;-80
2022/04/07 15:32:44;;;;;;;1.15;0.45;;;13.50;50.80;;;;;;4981357;28;20627;-79
2022/04/07 15:35:11;;;;;;;3.80;0.98;;;15.10;47.80;;;;;;4985214;28;20048;-79
2022/04/07 15:37:37;;;;;;;5.15;1.00;;;15.30;45.70;;;;;;4989572;28;20037;-79
2022/04/07 15:40:04;;;;;;;8.43;1.02;;;15.70;46.00;;;;;;4989509;28;20114;-79
2022/04/07 15:42:31;;;;;;;2.83;0.60;;;17.70;43.90;;;;;;4989097;28;20022;-85
2022/04/07 15:44:57;;;;;;;5.88;1.05;;;18.10;41.60;;;;;;4978536;28;20112;-80
2022/04/07 15:47:23;;;;;;;3.65;0.68;;;18.70;40.20;;;;;;4981632;28;20018;-82
2022/04/07 15:49:49;;;;;;;2.78;0.80;;;18.70;39.20;;;;;;4975913;28;20114;-80
2022/04/07 15:52:17;;;;;;;9.95;1.85;;;18.70;40.80;;;;;;4974094;28;20105;-78
2022/04/07 15:54:44;;;;;;;6.50;1.05;;;18.90;39.60;;;;;;4976740;28;20477;-80
2022/04/07 15:57:10;;;;;;;6.68;1.00;;;18.60;39.60;;;;;;4981435;28;20609;-80
2022/04/07 15:59:36;;;;;;;3.85;0.85;;;17.70;38.40;;;;;;4977539;28;20027;-79
2022/04/07 16:02:04;;;;;;;2.58;0.70;;;16.80;41.50;;;;;;4974277;28;20031;-79
2022/04/07 16:04:30;;;;;;;6.78;1.00;;;16.70;42.60;;;;;;4978259;28;20041;-79
2022/04/07 16:06:56;;;;;;;5.70;0.90;;;15.90;39.80;;;;;;4985734;28;20113;-79
2022/04/07 16:09:22;;;;;;;5.03;0.85;;;15.10;40.20;;;;;;4987480;28;20073;-80
2022/04/07 16:11:48;;;;;;;5.20;0.90;;;14.70;42.50;;;;;;4993666;28;20034;-79
2022/04/07 16:14:13;;;;;;;1.90;0.70;;;14.40;41.50;;;;;;4993396;28;20483;-81
2022/04/07 16:16:42;;;;;;;2.03;0.50;;;13.70;38.80;;;;;;4993824;28;20045;-80
2022/04/07 16:19:08;;;;;;;1.08;0.45;;;13.70;38.80;;;;;;4993975;28;20023;-79
2022/04/07 16:21:33;;;;;;;6.30;0.73;;;13.60;37.70;;;;;;4993634;28;20026;-79
2022/04/07 16:24:03;;;;;;;2.38;0.60;;;13.40;39.00;;;;;;4993840;28;20061;-80
2022/04/07 17:26:02;;;;;;;7.85;1.40;;;11.80;53.60;;;;;;5467446;23;20056;-88
2022/04/07 17:28:28;;;;;;;3.20;1.13;;;11.60;54.10;;;;;;5023226;28;20495;-84
2022/04/07 17:30:55;;;;;;;2.22;0.63;;;11.50;54.20;;;;;;5017820;28;20450;-84
2022/04/07 17:33:20;;;;;;;2.53;0.80;;;11.50;55.10;;;;;;5018693;28;20030;-87
2022/04/07 17:35:47;;;;;;;5.28;1.20;;;11.40;55.70;;;;;;5028120;28;20037;-86
2022/04/07 17:38:13;;;;;;;3.55;1.23;;;11.30;55.60;;;;;;5033413;28;20507;-87
2022/04/07 17:40:39;;;;;;;6.93;1.65;;;11.20;56.10;;;;;;5032195;28;20028;-82
2022/04/07 17:43:12;;;;;;;6.93;1.35;;;11.10;57.00;;;;;;5028526;28;20104;-87
2022/04/07 17:45:39;;;;;;;7.03;1.45;;;11.10;57.90;;;;;;5031511;28;20033;-91
2022/04/07 17:48:06;;;;;;;11.02;1.38;;;11.00;58.50;;;;;;5032168;28;20033;-85
2022/04/07 17:50:33;;;;;;;7.93;1.80;;;10.90;58.20;;;;;;5032865;28;20013;-89
2022/04/07 17:52:59;;;;;;;4.53;1.13;;;10.80;58.80;;;;;;5038968;28;20017;-88
2022/04/07 17:55:25;;;;;;;6.47;1.45;;;10.60;58.70;;;;;;5032356;28;20029;-88
2022/04/07 17:57:50;;;;;;;4.18;1.35;;;10.40;59.50;;;;;;5032257;28;20049;-88
2022/04/07 18:00:18;;;;;;;3.67;0.93;;;10.40;59.90;;;;;;5038895;28;20026;-85
2022/04/07 18:02:44;;;;;;;4.03;1.00;;;10.30;60.80;;;;;;5032793;28;20017;-91
2022/04/07 18:05:10;;;;;;;3.95;0.90;;;10.20;60.90;;;;;;5032420;28;20405;-88
2022/04/07 18:07:39;;;;;;;4.05;1.10;;;10.20;61.10;;;;;;5020964;28;20026;-89
2022/04/07 18:10:06;;;;;;;7.30;1.20;;;10.10;62.20;;;;;;5029636;28;20025;-88
2022/04/07 18:12:38;;;;;;;4.63;0.82;;;10.10;62.80;;;;;;5030526;28;20096;-86
2022/04/07 18:15:09;;;;;;;5.75;0.98;;;10.10;64.60;;;;;;5037325;28;20045;-88
2022/04/07 18:17:35;;;;;;;6.47;1.10;;;10.10;65.90;;;;;;5023812;28;21099;-78
2022/04/07 18:20:01;;;;;;;5.70;1.23;;;10.10;69.00;;;;;;5027071;28;20039;-85
2022/04/07 18:22:27;;;;;;;1.80;0.90;;;10.00;69.50;;;;;;5032079;28;20017;-87
2022/04/07 18:24:53;;;;;;;3.75;2.00;;;9.80;71.40;;;;;;5039863;23;20025;-86
2022/04/07 18:27:20;;;;;;;2.67;0.70;;;9.70;69.10;;;;;;5047283;28;20054;-85
2022/04/07 18:29:46;;;;;;;5.45;1.10;;;9.60;69.20;;;;;;5031996;28;20029;-86
2022/04/07 18:32:12;;;;;;;6.18;1.00;;;9.50;70.50;;;;;;5031669;28;20025;-86
2022/04/07 18:34:38;;;;;;;4.47;1.30;;;9.30;71.10;;;;;;5030466;28;20478;-83
2022/04/07 18:37:04;;;;;;;5.00;1.20;;;9.10;71.60;;;;;;5032189;28;20026;-85
2022/04/07 18:39:33;;;;;;;3.97;0.90;;;9.10;71.60;;;;;;5031645;28;20040;-84
2022/04/07 18:41:59;;;;;;;5.78;1.77;;;9.10;71.90;;;;;;5022276;28;20026;-81
2022/04/07 18:44:25;;;;;;;3.75;0.93;;;9.20;70.30;;;;;;5022171;28;20032;-84
2022/04/07 18:46:51;;;;;;;5.55;1.17;;;9.20;69.50;;;;;;5036279;28;20029;-80
2022/04/07 18:49:17;;;;;;;8.40;1.23;;;9.20;70.10;;;;;;5019441;28;20474;-85
2022/04/07 18:51:43;;;;;;;8.82;1.52;;;9.20;70.70;;;;;;5030527;28;20029;-83
2022/04/07 18:54:08;;;;;;;4.85;1.48;;;9.20;70.70;;;;;;5032369;28;20089;-85
2022/04/07 18:56:34;;;;;;;1.75;0.90;;;9.10;70.80;;;;;;5024003;28;20049;-85
2022/04/07 18:59:00;;;;;;;5.43;1.00;;;9.10;71.00;;;;;;5031340;28;20461;-83
2022/04/07 19:01:25;;;;;;;3.25;0.93;;;9.00;72.10;;;;;;5030330;28;20026;-85
2022/04/07 19:03:51;;;;;;;4.40;1.13;;;8.90;72.70;;;;;;5030875;28;20439;-82
2022/04/07 19:06:17;;;;;;;5.60;1.55;;;8.80;72.40;;;;;;5030984;28;20018;-84
2022/04/07 19:08:43;;;;;;;6.15;1.17;;;8.80;73.40;;;;;;5030259;28;20075;-83
2022/04/07 19:11:08;;;;;;;1.80;1.10;;;8.70;73.10;;;;;;5027774;28;20049;-82
2022/04/07 19:13:34;;;;;;;5.75;1.20;;;8.70;72.30;;;;;;5030951;28;20029;-82
2022/04/07 19:16:00;;;;;;;8.73;1.20;;;8.70;72.30;;;;;;5037659;28;20446;-83
2022/04/07 19:18:26;;;;;;;4.63;0.90;;;8.70;71.60;;;;;;5030105;28;20156;-83
2022/04/07 19:20:51;;;;;;;6.95;1.23;;;8.70;71.70;;;;;;5030043;28;20036;-84
2022/04/07 19:23:17;;;;;;;7.13;1.23;;;8.70;71.50;;;;;;5027428;28;20021;-83
2022/04/07 19:25:43;;;;;;;7.50;0.98;;;8.70;71.60;;;;;;5047167;23;20122;-86
2022/04/07 19:28:08;;;;;;;5.38;1.42;;;8.60;71.40;;;;;;5031447;28;20131;-91
2022/04/07 19:30:35;;;;;;;4.97;1.92;;;8.50;71.80;;;;;;5031721;28;20022;-87
2022/04/07 19:33:00;;;;;;;5.22;1.50;;;8.50;72.70;;;;;;5030517;28;20033;-88
2022/04/07 19:35:26;;;;;;;6.38;1.83;;;8.40;72.00;;;;;;5022906;28;20763;-81
2022/04/07 19:37:52;;;;;;;4.35;1.15;;;8.40;72.60;;;;;;5026661;28;20030;-83
2022/04/07 19:40:20;;;;;;;5.72;1.20;;;8.50;72.10;;;;;;5024352;28;20421;-82
2022/04/07 19:42:46;;;;;;;4.20;1.10;;;8.40;71.90;;;;;;5024956;28;20106;-81
2022/04/07 19:45:12;;;;;;;5.05;1.92;;;8.40;72.80;;;;;;5026449;28;20116;-83
2022/04/07 19:47:38;;;;;;;4.18;1.30;;;8.40;72.40;;;;;;5023003;28;20399;-81
2022/04/07 19:50:05;;;;;;;5.43;1.42;;;8.40;73.60;;;;;;5029071;28;20034;-81
2022/04/07 19:52:31;;;;;;;5.43;1.40;;;8.30;72.50;;;;;;5020039;28;20032;-80
2022/04/07 19:54:57;;;;;;;5.63;1.63;;;8.20;72.80;;;;;;5022356;28;20046;-80
2022/04/07 19:57:23;;;;;;;6.13;1.67;;;8.30;72.70;;;;;;5021558;28;20037;-79
2022/04/07 19:59:48;;;;;;;6.25;1.88;;;8.30;72.20;;;;;;5017742;28;20033;-80
2022/04/07 20:02:17;;;;;;;5.80;1.45;;;8.30;73.10;;;;;;5021149;28;20021;-78
2022/04/07 20:04:48;;;;;;;5.32;1.83;;;8.30;73.10;;;;;;5025750;28;20135;-79
2022/04/07 20:07:16;;;;;;;6.25;1.50;;;8.20;73.40;;;;;;5026340;28;20026;-82
2022/04/07 20:09:43;;;;;;;6.72;1.52;;;8.20;73.90;;;;;;5026863;28;20485;-81
2022/04/07 20:12:09;;;;;;;5.43;1.05;;;8.20;73.90;;;;;;5029087;28;20025;-82
2022/04/07 20:14:35;;;;;;;9.45;1.70;;;8.20;74.20;;;;;;5030456;28;20103;-82
2022/04/07 20:17:01;;;;;;;4.97;1.77;;;8.30;74.20;;;;;;5029978;28;20030;-82
2022/04/07 20:19:28;;;;;;;4.07;1.08;;;8.20;73.90;;;;;;5037018;28;20359;-79
2022/04/07 20:21:53;;;;;;;7.10;1.63;;;8.20;74.30;;;;;;5030067;28;20112;-82
2022/04/07 20:24:19;;;;;;;7.78;1.90;;;8.20;74.50;;;;;;5028680;28;20487;-81
2022/04/07 20:26:49;;;;;;;5.13;1.80;;;8.20;74.50;;;;;;5039439;23;20057;-79
2022/04/07 20:29:16;;;;;;;9.00;1.92;;;8.10;74.50;;;;;;5022772;28;20441;-83
2022/04/07 20:31:42;;;;;;;3.70;1.20;;;8.10;74.60;;;;;;5019761;28;20021;-81
2022/04/07 20:34:09;;;;;;;5.75;1.13;;;8.10;74.20;;;;;;5037083;28;20040;-80
2022/04/07 20:36:35;;;;;;;7.18;1.30;;;8.10;74.70;;;;;;5030340;28;20092;-85
2022/04/07 20:39:01;;;;;;;5.43;1.20;;;8.10;74.90;;;;;;5004425;28;20641;-89
2022/04/07 20:41:27;;;;;;;6.03;1.33;;;8.00;74.90;;;;;;4993261;28;20029;-86
2022/04/07 20:43:53;;;;;;;2.72;1.00;;;8.00;75.60;;;;;;5000400;28;20037;-83
2022/04/07 20:46:18;;;;;;;5.40;1.17;;;8.00;75.00;;;;;;4994227;28;20041;-84
2022/04/07 20:48:44;;;;;;;7.47;1.80;;;7.90;75.00;;;;;;5000361;28;20030;-81
2022/04/07 20:51:10;;;;;;;5.30;1.35;;;7.90;76.00;;;;;;5006790;28;20144;-82
2022/04/07 20:53:35;;;;;;;4.22;1.55;;;7.90;75.90;;;;;;5007035;28;20040;-79
2022/04/07 20:56:01;;;;;;;8.30;1.73;;;7.80;76.40;;;;;;5008545;28;20088;-79
2022/04/07 20:58:27;;;;;;;5.57;2.15;;;7.90;77.10;;;;;;5006969;28;20531;-80
2022/04/07 21:00:53;;;;;;;8.60;2.20;;;7.90;76.00;;;;;;5016115;28;20032;-80
2022/04/07 21:03:19;;;;;;;6.57;1.42;;;7.80;76.00;;;;;;5008956;28;20041;-80
2022/04/07 21:05:44;;;;;;;5.22;1.60;;;7.80;76.40;;;;;;5008795;28;20034;-80
2022/04/07 21:08:10;;;;;;;5.07;1.30;;;7.80;76.10;;;;;;5009379;28;20451;-81
2022/04/07 21:10:36;;;;;;;4.15;1.33;;;7.90;76.10;;;;;;5009399;28;20034;-83
2022/04/07 21:13:02;;;;;;;7.70;1.08;;;7.90;76.70;;;;;;4998125;28;20023;-80
2022/04/07 21:15:27;;;;;;;5.00;1.15;;;7.90;76.80;;;;;;4998904;28;20034;-80
2022/04/07 21:17:53;;;;;;;4.90;1.23;;;7.90;76.40;;;;;;4993528;28;20042;-81
2022/04/07 21:20:19;;;;;;;3.95;1.00;;;7.80;76.60;;;;;;4997683;28;20026;-80
2022/04/07 21:22:46;;;;;;;2.35;0.90;;;7.90;76.60;;;;;;4999907;28;20037;-80
2022/04/07 21:25:12;;;;;;;2.67;0.90;;;7.90;77.00;;;;;;4993714;28;20030;-80
2022/04/07 21:27:38;;;;;;;4.93;0.90;;;7.90;77.00;;;;;;4995362;28;20033;-79
2022/04/07 21:30:04;;;;;;;3.28;1.20;;;7.90;76.90;;;;;;4998768;28;20027;-78
2022/04/07 21:32:29;;;;;;;4.22;1.02;;;7.90;76.90;;;;;;4996650;28;20037;-80
2022/04/07 21:34:55;;;;;;;3.47;1.00;;;7.80;77.40;;;;;;4994203;28;20038;-80
2022/04/07 21:37:21;;;;;;;2.10;0.82;;;7.80;78.10;;;;;;5000559;28;20053;-80
2022/04/07 21:39:46;;;;;;;1.63;1.08;;;7.70;78.30;;;;;;4998199;28;20109;-79
2022/04/07 21:42:12;;;;;;;4.00;0.80;;;7.70;78.70;;;;;;4994121;28;20025;-81
2022/04/07 21:44:38;;;;;;;4.15;1.15;;;7.60;79.50;;;;;;4997369;28;20521;-78
2022/04/07 21:47:04;;;;;;;3.60;0.90;;;7.50;79.80;;;;;;4995408;28;20462;-83
2022/04/07 21:49:29;;;;;;;4.28;0.90;;;7.50;80.50;;;;;;5003488;28;20022;-80
2022/04/07 21:51:55;;;;;;;4.72;1.00;;;7.40;79.70;;;;;;4997061;28;20022;-83
2022/04/07 21:54:21;;;;;;;6.40;1.20;;;7.40;80.80;;;;;;5001223;28;20026;-82
2022/04/07 21:56:47;;;;;;;1.50;0.90;;;7.30;81.50;;;;;;4998563;28;20057;-83
2022/04/07 21:59:13;;;;;;;3.85;1.30;;;7.20;81.70;;;;;;4998216;28;20033;-83
2022/04/07 22:01:41;;;;;;;4.63;1.17;;;7.10;82.40;;;;;;4996675;28;20029;-82
2022/04/07 22:04:09;;;;;;;4.68;1.02;;;7.00;82.70;;;;;;5003643;28;20024;-82
2022/04/07 22:06:36;;;;;;;3.83;1.20;;;7.00;83.70;;;;;;5001956;28;20010;-83
2022/04/07 22:09:03;;;;;;;3.60;1.40;;;7.00;84.00;;;;;;4999698;28;20022;-82
2022/04/07 22:11:29;;;;;;;3.88;1.38;;;6.90;84.30;;;;;;5001976;28;20512;-82
2022/04/07 22:13:54;;;;;;;7.22;1.50;;;6.80;84.40;;;;;;4998269;28;20136;-82
2022/04/07 22:16:22;;;;;;;4.70;1.38;;;6.80;84.70;;;;;;4996379;28;20116;-81
2022/04/07 22:18:49;;;;;;;6.82;1.77;;;6.80;85.20;;;;;;5003164;28;20482;-82
2022/04/07 22:21:15;;;;;;;7.72;1.00;;;6.70;85.70;;;;;;5002884;28;20026;-83
2022/04/07 22:23:40;;;;;;;5.20;1.20;;;6.70;86.00;;;;;;4996831;28;20173;-82
2022/04/07 22:26:09;;;;;;;4.00;1.05;;;6.60;86.50;;;;;;4997537;28;20049;-82
2022/04/07 22:28:35;;;;;;;3.55;1.00;;;6.60;86.50;;;;;;4996644;28;20029;-82
2022/04/07 22:31:02;;;;;;;4.18;1.00;;;6.50;87.10;;;;;;4997553;28;20097;-82
2022/04/07 22:33:29;;;;;;;5.30;1.35;;;6.50;87.20;;;;;;4995261;28;20038;-81
2022/04/07 22:35:55;;;;;;;3.88;1.20;;;6.50;87.90;;;;;;5003207;28;20104;-82
2022/04/07 22:38:21;;;;;;;3.17;1.13;;;6.50;88.20;;;;;;5008117;28;20061;-81
2022/04/07 22:40:49;;;;;;;5.50;1.30;;;6.40;88.00;;;;;;5011447;28;20475;-82
2022/04/07 22:43:15;;;;;;;1.53;1.10;;;6.40;88.70;;;;;;5011334;28;20017;-82
2022/04/07 22:45:41;;;;;;;3.53;1.40;;;6.40;88.70;;;;;;5009518;28;20018;-82
2022/04/07 22:48:09;;;;;;;5.78;1.33;;;6.30;88.80;;;;;;5011718;28;20022;-82
2022/04/07 22:50:35;;;;;;;2.75;1.20;;;6.20;89.40;;;;;;5009815;28;20117;-81
2022/04/07 22:53:01;;;;;;;2.80;1.10;;;6.20;89.90;;;;;;5011095;28;20097;-82
2022/04/07 22:55:27;;;;;;;2.57;0.97;;;6.20;90.10;;;;;;5028096;23;20042;-89
2022/04/07 22:57:53;;;;;;;4.57;1.33;;;6.20;90.00;;;;;;5016589;28;20064;-90
2022/04/07 23:00:19;;;;;;;3.27;1.17;;;6.20;90.20;;;;;;5021994;28;20053;-91
2022/04/07 23:02:46;;;;;;;5.63;1.40;;;6.20;90.00;;;;;;5019603;28;20060;-92
2022/04/07 23:05:16;;;;;;;3.93;1.77;;;6.10;90.30;;;;;;5021522;28;20030;-91
2022/04/07 23:07:42;;;;;;;3.07;1.70;;;6.00;90.40;;;;;;5025893;28;20064;-90
2022/04/07 23:10:09;;;;;;;6.10;2.03;;;6.00;90.70;;;;;;5025527;28;20117;-92
2022/04/07 23:12:35;;;;;;;6.60;1.90;;;5.90;90.90;;;;;;5022220;28;20021;-93
2022/04/07 23:15:01;;;;;;;3.00;1.93;;;5.90;91.10;;;;;;5035368;28;20037;-89
2022/04/07 23:17:28;;;;;;;3.53;1.23;;;5.80;91.20;;;;;;5018115;28;20022;-92
2022/04/07 23:19:54;;;;;;;6.60;1.50;;;5.70;91.70;;;;;;5019725;28;20030;-92
2022/04/07 23:22:19;;;;;;;3.50;1.60;;;5.60;92.00;;;;;;5022206;28;20101;-93
2022/04/07 23:24:46;;;;;;;4.07;1.50;;;5.60;92.00;;;;;;5014131;28;20034;-92
2022/04/07 23:27:12;;;;;;;8.17;1.70;;;5.60;92.10;;;;;;5021385;28;20097;-90
2022/04/07 23:29:37;;;;;;;5.40;1.50;;;5.50;92.30;;;;;;5019125;28;20048;-90
2022/04/07 23:32:07;;;;;;;3.47;1.30;;;5.50;92.10;;;;;;5017134;28;20026;-90
2022/04/07 23:34:34;;;;;;;5.23;1.00;;;5.50;92.40;;;;;;5013576;28;20120;-92
2022/04/07 23:37:01;;;;;;;1.47;1.23;;;5.50;92.50;;;;;;5020541;28;20018;-91
2022/04/07 23:39:28;;;;;;;4.80;1.37;;;5.40;92.50;;;;;;5012916;28;20092;-88
2022/04/07 23:41:53;;;;;;;3.07;1.20;;;5.30;92.90;;;;;;5011976;28;20437;-90
2022/04/07 23:44:20;;;;;;;4.27;1.17;;;5.20;93.00;;;;;;5016739;28;20540;-92
2022/04/07 23:46:46;;;;;;;2.40;1.13;;;5.20;93.20;;;;;;5012966;28;20025;-93
2022/04/07 23:49:13;;;;;;;7.00;2.37;;;5.10;93.50;;;;;;5021152;28;20383;-91
2022/04/07 23:51:39;;;;;;;10.13;1.53;;;4.90;93.70;;;;;;5022682;28;20025;-90
2022/04/07 23:54:05;;;;;;;2.40;1.50;;;4.80;94.00;;;;;;5015530;28;20022;-91